Date,TemperatureHighF,TemperatureAvgF,TemperatureLowF,DewpointHighF,DewpointAvgF,DewpointLowF,HumidityHigh,HumidityAvg,HumidityLow,PressureMaxIn,PressureMinIn,WindSpeedMaxMPH,WindSpeedAvgMPH,GustSpeedMaxMPH,PrecipitationSumIn
2014-1-1,37,31,26,33,30,26,100,96,82,0.00,40.00,15,7,18,0.01
2014-1-2,41,29,23,33,27,23,100,92,66,0.00,40.00,8,4,10,0.01
2014-1-3,50,37,20,34,27,19,100,68,48,0.00,40.00,28,19,33,0.00
2014-1-4,32,25,20,24,17,-100,99,76,49,0.00,40.00,21,13,25,0.00
2014-1-5,32,22,13,16,13,10,90,70,39,0.00,40.00,13,8,15,0.00
2014-1-6,37,18,6,14,10,4,94,76,32,0.00,40.00,13,4,16,0.00
2014-1-7,35,24,17,21,16,13,87,74,49,0.00,40.00,12,3,14,0.00
2014-1-8,33,28,24,33,27,22,100,97,78,0.00,40.00,21,4,24,0.10
2014-1-9,36,32,29,36,30,24,100,90,80,0.00,40.00,25,18,31,0.17
2014-1-10,41,36,30,34,31,25,99,83,72,0.00,40.00,25,18,31,0.01
2014-1-11,49,39,35,39,33,-100,100,83,57,0.00,40.00,33,19,42,0.25
2014-1-12,38,34,30,34,30,27,94,85,76,0.00,40.00,33,23,42,0.02
2014-1-13,44,39,35,36,34,32,91,82,72,0.00,40.00,29,23,37,0.00
2014-1-14,43,36,33,35,32,30,93,84,69,0.00,40.00,23,12,29,0.00
2014-1-15,44,36,29,32,29,26,100,77,54,0.00,40.00,19,9,23,0.00
2014-1-16,39,28,21,32,27,21,100,94,65,0.00,40.00,8,3,9,0.00
2014-1-17,33,26,23,30,26,23,100,98,85,0.00,40.00,8,4,11,0.00
2014-1-18,40,26,18,31,22,-100,100,91,62,0.00,40.00,6,3,7,0.00
2014-1-19,45,32,17,28,24,16,100,77,49,0.00,40.00,18,6,22,0.00
2014-1-20,44,29,19,29,24,18,100,84,52,0.00,40.00,12,4,15,0.00
2014-1-21,44,32,18,27,24,17,100,75,47,0.00,40.00,10,4,12,0.00
2014-1-22,37,26,15,27,23,15,100,91,64,0.00,40.00,11,6,14,0.04
2014-1-23,39,28,22,32,27,21,100,96,75,0.00,40.00,9,3,10,0.04
2014-1-24,43,27,15,25,21,14,100,80,47,0.00,40.00,11,4,14,0.00
2014-1-25,38,24,14,26,19,-100,100,88,58,0.00,40.00,9,4,10,0.00
2014-1-26,30,24,18,29,24,18,100,98,87,0.00,40.00,9,3,10,0.01
2014-1-27,34,23,16,24,21,16,100,92,68,0.00,40.00,6,3,8,0.00
2014-1-28,35,22,12,21,15,11,100,82,37,0.00,40.00,15,5,20,0.00
2014-1-29,43,35,28,43,32,18,100,88,57,0.00,40.00,31,17,40,0.16
2014-1-30,40,37,33,35,32,28,88,81,72,0.00,40.00,25,18,30,0.01
2014-1-31,34,31,28,29,27,25,97,87,72,0.00,40.00,15,10,19,0.00
2014-2-1,35,29,26,29,23,-100,99,83,62,0.00,40.00,17,10,21,0.00
2014-2-2,33,30,26,29,23,20,100,76,58,0.00,40.00,18,10,22,0.05
2014-2-3,33,29,23,30,24,19,100,84,71,0.00,40.00,20,14,24,0.05
2014-2-4,23,13,4,19,9,0,100,82,63,0.00,40.00,15,8,16,0.03
2014-2-5,13,7,2,7,3,-1,93,85,73,0.00,40.00,13,9,16,0.03
2014-2-6,13,9,2,10,6,0,94,89,82,0.00,40.00,9,7,12,0.04
2014-2-7,32,20,12,30,19,10,100,95,89,0.00,40.00,20,10,25,0.11
2014-2-8,41,38,35,38,36,33,100,94,78,0.00,40.00,26,16,30,0.15
2014-2-9,44,41,36,39,36,33,100,84,70,0.00,40.00,29,17,35,0.01
2014-2-10,38,36,33,35,34,31,100,94,80,0.00,40.00,14,8,17,0.00
2014-2-11,44,39,33,37,34,31,91,83,71,0.00,40.00,27,14,32,0.00
2014-2-12,44,40,37,43,38,33,100,92,78,0.00,40.00,25,15,30,0.10
2014-2-13,50,45,38,44,40,35,100,84,63,0.00,40.00,31,16,38,0.01
2014-2-14,46,41,35,45,39,27,100,92,61,0.00,40.00,23,12,29,0.10
2014-2-15,58,45,39,46,39,-100,100,86,39,0.00,40.00,20,9,24,0.14
2014-2-16,57,43,33,41,33,21,97,68,39,0.00,40.00,36,19,42,0.05
2014-2-17,54,40,33,32,27,24,79,62,35,0.00,40.00,28,17,32,0.02
2014-2-18,47,41,35,34,30,25,96,67,42,0.00,40.00,29,16,34,0.00
2014-2-19,49,38,29,34,27,13,97,65,31,0.00,40.00,30,22,37,0.00
2014-2-20,40,34,25,30,24,20,95,68,45,0.00,40.00,24,17,29,0.00
2014-2-21,45,38,33,31,28,23,90,69,45,0.00,40.00,31,23,38,0.00
2014-2-22,41,36,33,30,26,-100,77,67,54,0.00,40.00,28,17,34,0.00
2014-2-23,51,41,35,33,30,26,82,64,40,0.00,40.00,24,13,30,0.00
2014-2-24,54,46,38,37,33,29,81,63,48,0.00,40.00,19,12,26,0.00
2014-2-25,53,43,33,40,33,22,91,68,44,0.00,40.00,20,10,25,0.00
2014-2-26,56,38,23,37,28,22,95,70,46,0.00,40.00,8,5,11,0.00
2014-2-27,45,38,29,44,36,29,100,93,76,0.00,40.00,22,8,28,0.08
2014-2-28,55,44,37,38,36,29,92,74,38,0.00,40.00,20,13,25,0.01
2014-3-1,44,36,29,41,34,-100,100,97,81,0.00,40.00,24,7,29,0.46
2014-3-2,49,37,27,44,36,27,100,96,73,0.00,40.00,13,6,15,0.15
2014-3-3,54,46,41,43,40,36,98,83,51,0.00,40.00,15,10,19,0.07
2014-3-4,53,45,40,41,39,34,94,78,47,0.00,40.00,24,14,29,0.02
2014-3-5,58,47,40,40,38,34,91,72,41,0.00,40.00,24,16,29,0.00
2014-3-6,54,46,41,45,41,38,96,82,64,0.00,40.00,26,17,32,0.05
2014-3-7,50,42,36,40,36,26,96,82,40,0.00,40.00,20,12,24,0.01
2014-3-8,55,44,32,36,31,-100,97,65,42,0.00,40.00,24,8,33,0.01
2014-3-9,60,51,45,43,34,26,70,53,28,0.00,40.00,30,20,37,0.00
2014-3-16,66,51,36,27,22,-100,55,34,21,0.00,40.00,24,15,28,0.00
2014-3-17,59,46,38,36,26,15,90,46,20,0.00,40.00,41,22,51,0.01
2014-3-18,44,33,27,24,21,14,88,65,30,0.00,40.00,19,13,25,0.01
2014-3-19,53,37,24,19,17,12,79,49,19,0.00,40.00,18,10,23,0.00
2014-3-20,53,45,36,27,20,11,40,36,30,0.00,40.00,32,22,38,0.00
2014-3-21,46,32,17,17,10,-100,79,45,21,0.00,40.00,13,6,16,0.00
2014-3-22,47,34,24,18,14,-100,68,46,24,0.00,40.00,12,7,14,0.00
2014-3-23,57,46,26,18,14,10,73,31,16,0.00,40.00,27,17,30,0.00
2014-3-24,60,44,26,23,19,15,70,39,17,0.00,40.00,15,9,20,0.00
2014-3-25,70,55,40,29,18,14,59,26,12,0.00,40.00,23,13,27,0.00
2014-3-26,52,47,40,36,31,17,73,54,25,0.00,40.00,23,15,27,0.00
2014-3-27,48,42,36,36,30,24,100,65,39,0.00,40.00,28,19,32,0.03
2014-3-28,56,46,36,35,30,25,93,59,32,0.00,40.00,25,13,30,0.01
2014-3-29,58,48,42,45,33,-100,100,61,28,0.00,40.00,26,15,31,0.10
2014-3-30,42,36,34,42,36,32,100,99,79,0.00,40.00,22,9,26,0.55
2014-3-31,49,38,26,34,30,25,94,75,51,0.00,40.00,17,9,19,0.01
2014-4-1,43,35,31,40,32,-100,100,92,73,0.00,40.00,22,6,25,0.49
2014-4-2,44,36,30,36,32,29,100,87,64,0.00,40.00,11,7,13,0.04
2014-4-3,50,40,33,36,34,26,100,81,43,0.00,40.00,13,5,15,0.03
2014-4-4,54,46,37,37,34,27,85,67,35,0.00,40.00,18,12,22,0.00
2014-4-5,54,43,34,38,30,-100,100,68,33,0.00,40.00,23,13,28,0.00
2014-4-6,59,48,39,41,35,32,85,64,36,0.00,40.00,27,17,34,0.00
2014-4-7,63,48,32,38,34,29,97,63,31,0.00,40.00,15,9,21,0.00
2014-4-8,72,56,45,40,36,31,67,50,23,0.00,40.00,17,12,21,0.00
2014-4-9,70,60,47,42,36,31,66,41,24,0.00,40.00,28,16,34,0.00
2014-4-10,64,52,45,39,35,22,78,57,20,0.00,40.00,25,14,31,0.00
2014-4-11,71,55,36,34,31,28,80,44,20,0.00,40.00,23,12,30,0.00
2014-4-12,64,54,43,35,25,-100,68,38,16,0.00,40.00,28,16,33,0.00
2014-4-13,51,44,36,40,22,7,87,45,24,0.00,40.00,26,18,32,0.01
2014-4-14,59,45,21,18,13,8,71,30,13,0.00,40.00,20,10,24,0.00
2014-4-15,62,51,43,28,19,13,47,28,16,0.00,40.00,39,21,47,0.00
2014-4-16,57,44,28,24,19,11,75,41,16,0.00,40.00,13,7,18,0.00
2014-4-17,69,53,35,30,24,19,55,35,20,0.00,40.00,21,12,26,0.00
2014-4-18,63,52,41,46,37,21,99,60,24,0.00,40.00,29,18,35,0.05
2014-4-19,71,54,31,35,24,-100,73,36,16,0.00,40.00,18,7,20,0.01
2014-4-20,63,56,40,35,24,15,53,31,15,0.00,40.00,28,17,35,0.00
2014-4-21,74,54,32,31,24,19,63,34,16,0.00,40.00,18,9,21,0.00
2014-4-22,70,54,41,46,41,31,100,66,28,0.00,40.00,27,15,35,0.16
2014-4-23,52,43,35,38,31,22,94,65,31,0.00,40.00,28,18,35,0.05
2014-4-24,59,47,38,45,34,27,93,63,36,0.00,40.00,23,14,30,0.01
2014-4-25,55,48,42,49,45,42,100,89,67,0.00,40.00,18,8,23,0.19
2014-4-26,51,43,38,43,37,-100,100,86,53,0.00,40.00,29,14,37,0.07
2014-4-27,54,43,34,38,32,27,86,65,35,0.00,40.00,27,18,34,0.02
2014-4-28,49,41,33,37,30,21,97,68,33,0.00,40.00,21,12,24,0.00
2014-4-29,57,43,26,31,24,17,94,55,24,0.00,40.00,19,9,24,0.00
2014-4-30,67,48,29,31,26,19,97,49,17,0.00,40.00,16,6,20,0.00
2014-5-1,73,55,36,38,32,23,85,49,17,0.00,40.00,11,7,13,0.00
2014-5-2,79,68,50,38,31,26,50,28,15,0.00,40.00,17,11,21,0.00
2014-5-3,79,67,55,37,28,-100,47,26,13,0.00,40.00,22,14,27,0.00
2014-5-4,72,62,52,37,30,24,51,30,20,0.00,40.00,26,14,36,0.00
2014-5-5,63,57,52,42,37,32,68,49,32,0.00,40.00,19,10,22,0.00
2014-5-6,52,47,41,47,44,36,100,91,54,0.00,40.00,18,8,20,0.15
2014-5-7,45,45,45,45,45,45,99,99,99,0.00,40.00,9,9,11,0.00
2014-5-13,64,60,45,23,14,7,40,17,10,0.00,40.00,14,4,17,0.00
2014-5-14,72,56,38,41,30,22,74,40,20,0.00,40.00,14,9,18,0.00
2014-5-15,77,62,42,45,37,31,75,42,21,0.00,40.00,15,9,18,0.00
2014-5-16,79,64,52,51,41,35,88,46,25,0.00,40.00,17,8,24,0.00
2014-5-17,76,58,41,52,41,-100,100,65,17,0.00,40.00,15,5,21,0.00
2014-5-18,69,60,48,45,41,37,77,51,32,0.00,40.00,24,12,29,0.00
2014-5-19,66,53,44,42,33,-100,82,55,27,0.00,40.00,17,10,23,0.00
2014-5-20,70,54,39,45,40,-100,95,63,30,0.00,40.00,19,8,24,0.00
2014-5-21,79,58,42,48,42,27,94,61,15,0.00,40.00,19,7,22,0.00
2014-5-22,81,60,40,51,42,-100,97,60,22,0.00,40.00,12,6,15,0.00
2014-5-23,83,64,45,49,42,30,82,50,15,0.00,40.00,18,7,23,0.00
2014-5-24,76,64,54,50,44,-100,74,52,31,0.00,40.00,19,13,23,0.00
2014-5-25,77,65,50,48,41,28,71,44,16,0.00,40.00,15,10,19,0.00
2014-5-26,84,69,52,50,44,39,66,43,21,0.00,40.00,15,9,17,0.00
2014-5-27,85,68,48,52,43,34,80,45,19,0.00,40.00,18,8,22,0.00
2014-5-28,80,68,55,48,40,28,70,38,21,0.00,40.00,22,11,26,0.00
2014-5-29,69,57,47,40,29,16,61,38,13,0.00,40.00,20,13,24,0.00
2014-5-30,78,58,40,52,38,26,72,50,25,0.00,40.00,9,5,11,0.00
2014-5-31,76,63,54,54,39,-100,83,45,23,0.00,40.00,17,5,20,0.00
2014-6-1,75,63,51,44,38,33,67,42,22,0.00,40.00,19,9,23,0.00
2014-6-2,80,65,45,54,43,35,75,47,23,0.00,40.00,13,6,16,0.00
2014-6-3,80,66,54,49,43,34,71,46,19,0.00,40.00,22,11,27,0.00
2014-6-4,79,65,49,49,38,19,79,42,11,0.00,40.00,19,11,26,0.00
2014-6-5,81,64,45,39,33,27,56,34,14,0.00,40.00,19,12,25,0.00
2014-6-6,80,65,45,44,37,31,64,37,17,0.00,40.00,17,10,22,0.00
2014-6-7,77,62,46,50,41,-100,84,49,24,0.00,40.00,14,8,17,0.00
2014-6-8,76,64,50,50,44,35,95,55,24,0.00,40.00,11,5,13,0.00
2014-6-9,82,67,50,50,42,32,72,44,17,0.00,40.00,18,9,22,0.00
2014-6-10,80,66,51,47,39,29,68,40,16,0.00,40.00,26,14,30,0.00
2014-6-11,77,63,47,42,37,25,73,43,15,0.00,40.00,18,5,22,0.00
2014-6-12,88,66,46,55,41,28,71,42,17,0.00,40.00,37,8,49,0.00
2014-6-13,73,66,57,46,38,30,61,37,26,0.00,40.00,23,15,27,0.00
2014-6-14,66,55,46,44,37,-100,89,56,26,0.00,40.00,20,15,25,0.01
2014-6-15,72,59,43,44,39,35,79,50,26,0.00,40.00,20,7,29,0.01
2014-6-16,65,54,47,51,45,40,100,72,50,0.00,40.00,25,9,30,0.13
2014-6-17,59,50,43,47,38,29,100,69,34,0.00,40.00,18,11,23,0.11
2014-6-18,56,48,39,46,41,36,91,78,58,0.00,40.00,21,12,24,0.02
2014-6-19,78,61,43,52,42,33,91,56,19,0.00,40.00,15,9,18,0.01
2014-6-20,87,69,56,55,43,33,70,41,15,0.00,40.00,15,7,18,0.00
2014-6-21,80,66,52,58,47,-100,78,53,25,0.00,40.00,15,8,18,0.00
2014-6-22,84,67,48,57,46,34,96,53,17,0.00,40.00,15,8,19,0.00
2014-6-23,83,64,46,56,47,39,96,62,22,0.00,40.00,12,4,14,0.00
2014-6-24,88,69,53,58,47,38,77,50,18,0.00,40.00,11,5,13,0.00
2014-6-25,82,71,59,56,50,46,77,50,29,0.00,40.00,13,7,17,0.00
2014-6-26,74,64,57,56,53,48,87,69,43,0.00,40.00,17,9,21,0.02
2014-6-27,73,63,54,55,52,46,90,68,39,0.00,40.00,25,13,30,0.01
2014-6-28,76,62,49,52,45,-100,91,59,31,0.00,40.00,26,12,30,0.00
2014-6-29,81,65,48,49,43,32,82,48,17,0.00,40.00,21,12,26,0.00
2014-6-30,78,63,47,50,40,27,84,48,16,0.00,40.00,13,5,15,0.00
2014-7-1,82,65,46,53,45,34,79,51,28,0.00,40.00,12,6,17,0.00
2014-7-2,89,73,46,61,52,41,91,50,28,0.00,40.00,11,6,12,0.00
2014-7-3,88,73,56,67,51,40,90,49,24,0.00,40.00,11,6,13,0.00
2014-7-4,96,78,61,67,53,46,68,45,20,0.00,40.00,27,8,33,0.00
2014-7-5,93,76,56,61,49,-100,73,43,20,0.00,40.00,17,10,20,0.00
2014-7-6,94,75,54,58,47,38,64,40,16,0.00,40.00,11,6,12,0.00
2014-7-7,94,76,55,57,46,36,71,39,15,0.00,40.00,10,5,12,0.00
2014-7-8,91,76,53,62,54,46,79,49,24,0.00,40.00,12,7,14,0.00
2014-7-9,93,75,56,59,50,40,64,43,22,0.00,40.00,13,8,15,0.00
2014-7-10,89,79,65,62,55,44,72,47,21,0.00,40.00,11,8,14,0.00
2014-7-11,89,76,70,69,58,50,71,53,28,0.00,40.00,23,11,29,0.00
2014-7-12,94,76,64,62,55,50,89,52,23,0.00,40.00,14,7,21,0.00
2014-7-13,98,76,57,66,55,41,93,57,17,0.00,40.00,7,3,8,0.00
2014-7-14,94,76,61,66,57,49,72,53,25,0.00,40.00,14,7,17,0.04
2014-7-15,91,77,59,64,55,44,99,54,20,0.00,40.00,22,10,26,0.03
2014-7-16,87,74,59,57,51,44,86,50,24,0.00,40.00,12,5,17,0.00
2014-7-17,91,72,55,60,52,47,80,52,23,0.00,40.00,12,6,17,0.00
2014-7-18,92,74,58,56,48,40,88,46,16,0.00,40.00,19,10,23,0.00
2014-7-21,87,75,63,63,55,47,85,51,32,0.00,40.00,30,9,37,0.04
2014-7-22,90,73,57,61,55,46,92,59,27,0.00,40.00,9,5,11,0.01
2014-7-23,96,76,60,58,50,39,88,45,15,0.00,40.00,14,7,19,0.00
2014-7-24,78,70,57,51,44,37,62,41,24,0.00,40.00,23,14,27,0.00
2014-7-25,86,66,47,51,37,29,66,38,14,0.00,40.00,13,8,17,0.00
2014-7-26,91,73,54,53,38,31,60,31,12,0.00,40.00,11,5,13,0.00
2014-7-27,95,71,51,49,40,33,63,36,13,0.00,40.00,12,6,13,0.00
2014-7-28,89,74,58,63,49,40,82,44,20,0.00,40.00,14,6,18,0.02
2014-7-29,79,70,63,66,61,57,99,76,47,0.00,40.00,9,5,12,0.02
2014-7-30,87,70,55,60,56,50,100,66,27,0.00,40.00,13,5,17,0.01
2014-8-1,92,74,56,57,51,42,83,49,17,0.00,40.00,14,6,19,0.02
2014-8-2,92,71,53,56,50,40,97,58,16,0.00,40.00,9,4,12,0.00
2014-8-3,95,76,55,54,48,41,77,41,16,0.00,40.00,14,6,19,0.01
2014-8-4,76,69,63,66,62,51,100,80,42,0.00,40.00,15,8,20,0.10
2014-8-5,73,67,64,67,64,60,100,91,76,0.00,40.00,11,4,15,0.15
2014-8-6,71,64,59,65,62,59,100,93,77,0.00,40.00,16,6,19,0.08
2014-8-7,78,65,53,62,57,53,100,80,44,0.00,40.00,8,4,11,0.01
2014-8-9,86,67,52,59,54,45,100,67,24,0.00,40.00,7,4,11,0.02
2014-8-10,91,71,54,58,51,39,90,57,16,0.00,40.00,8,5,12,0.00
2014-8-11,92,72,55,57,51,42,79,51,18,0.00,40.00,10,5,14,0.00
2014-8-12,90,74,61,59,53,49,87,51,25,0.00,40.00,31,8,39,0.00
2014-8-13,84,72,61,64,56,53,94,60,37,0.00,40.00,11,6,14,0.06
2014-8-14,82,70,61,67,62,57,100,78,50,0.00,40.00,17,5,20,0.11
2014-8-15,86,70,58,62,55,45,100,65,24,0.00,40.00,13,8,17,0.07
2014-8-16,87,69,54,55,48,42,88,52,21,0.00,40.00,18,10,22,0.00
2014-8-17,89,71,55,55,47,35,85,49,15,0.00,40.00,10,5,12,0.00
2014-8-18,90,71,57,54,47,37,83,49,16,0.00,40.00,21,5,26,0.00
2014-8-19,83,70,58,57,52,48,85,56,29,0.00,40.00,18,8,23,0.00
2014-8-20,82,66,53,58,54,46,100,70,29,0.00,40.00,14,6,22,0.07
2014-8-21,80,65,58,59,56,49,99,76,35,0.00,40.00,19,8,22,0.06
2014-8-22,63,59,54,57,55,53,100,88,74,0.00,40.00,18,10,22,0.07
2014-8-23,65,55,49,55,51,49,100,83,58,0.00,40.00,17,8,22,0.04
2014-8-24,73,60,51,55,50,45,100,74,37,0.00,40.00,9,4,13,0.04
2014-8-25,68,57,50,56,52,49,99,86,57,0.00,40.00,11,5,14,0.04
2014-8-26,79,63,49,56,52,45,100,72,30,0.00,40.00,9,3,10,0.01
2014-8-27,81,68,52,55,50,44,97,59,27,0.00,40.00,14,7,19,0.00
2014-8-29,90,75,56,51,46,40,78,40,19,0.00,40.00,13,8,16,0.00
2014-8-30,77,67,57,53,47,42,83,49,29,0.00,40.00,22,12,26,0.00
2014-8-31,71,61,53,51,45,36,88,60,30,0.00,40.00,18,13,24,0.00
2014-9-1,75,61,49,45,42,37,85,51,26,0.00,40.00,18,10,23,0.00
2014-9-2,83,66,48,47,41,36,78,46,20,0.00,40.00,16,8,21,0.00
2014-9-3,71,64,52,47,34,15,84,37,12,0.00,40.00,27,20,34,0.00
2014-9-4,73,57,40,37,30,20,87,41,14,0.00,40.00,14,6,17,0.00
2014-9-5,79,58,37,37,32,23,89,47,14,0.00,40.00,13,6,18,0.00
2014-9-6,84,60,42,44,37,31,79,46,24,0.00,40.00,13,5,15,0.00
2014-9-7,88,68,49,51,44,37,83,46,17,0.00,40.00,15,6,22,0.00
2014-9-8,85,67,49,54,47,38,87,53,19,0.00,40.00,23,8,32,0.00
2014-9-9,80,70,60,55,42,26,79,42,15,0.00,40.00,26,17,32,0.00
2014-9-10,72,62,51,42,36,27,61,40,23,0.00,40.00,23,15,27,0.00
2014-9-11,61,52,41,41,33,19,88,52,20,0.00,40.00,19,9,23,0.00
2014-9-12,71,49,27,31,25,21,86,47,16,0.00,40.00,15,5,19,0.00
2014-9-18,83,72,62,60,51,41,85,51,30,0.00,40.00,19,9,23,0.04
2014-9-19,80,66,54,58,50,42,95,61,27,0.00,40.00,22,11,25,0.01
2014-9-20,83,61,48,50,46,44,88,61,25,0.00,40.00,10,6,12,0.00
2014-9-21,78,62,50,60,51,47,98,72,33,0.00,40.00,22,5,25,0.00
2014-9-22,74,64,57,60,56,52,96,77,47,0.00,40.00,10,6,14,0.01
2014-9-23,82,66,50,55,51,47,100,64,31,0.00,40.00,13,7,17,0.00
2014-9-24,90,73,57,52,47,38,79,44,17,0.00,40.00,19,11,24,0.00
2014-9-25,91,77,59,45,38,33,57,28,13,0.00,40.00,22,13,29,0.00
2014-9-26,77,63,54,58,46,36,96,58,27,0.00,40.00,17,8,24,0.13
2014-9-27,63,58,56,59,55,51,100,89,70,0.00,40.00,16,8,22,0.37
2014-9-28,63,56,48,56,53,47,100,91,69,0.00,40.00,15,6,18,0.15
2014-9-29,60,52,44,52,48,44,100,88,69,0.00,40.00,14,6,18,0.01
2014-9-30,62,54,47,53,47,37,100,81,40,0.00,40.00,28,15,35,0.01
2014-10-1,59,49,43,43,39,33,96,70,39,0.00,40.00,18,11,24,0.01
2014-10-2,65,53,40,36,33,29,82,50,26,0.00,40.00,20,12,25,0.01
2014-10-3,66,51,35,41,34,29,94,58,26,0.00,40.00,12,5,14,0.00
2014-10-4,71,54,40,45,39,36,90,58,28,0.00,40.00,13,8,17,0.00
2014-10-5,74,58,43,42,40,37,83,54,30,0.00,40.00,16,9,21,0.00
2014-10-6,76,61,45,45,42,37,84,53,28,0.00,40.00,15,9,19,0.00
2014-10-7,76,62,46,48,43,39,91,54,28,0.00,40.00,17,8,20,0.00
2014-10-8,78,59,44,46,39,26,88,52,15,0.00,40.00,15,6,17,0.00
2014-10-9,74,58,40,45,41,36,95,57,27,0.00,40.00,12,6,15,0.00
2014-10-10,71,57,44,45,39,34,89,55,27,0.00,40.00,16,8,19,0.00
2014-10-11,72,55,42,44,36,30,79,52,22,0.00,40.00,23,13,28,0.00
2014-10-12,61,52,44,48,39,27,91,66,29,0.00,40.00,22,14,28,0.00
2014-10-13,66,49,35,36,33,27,90,58,24,0.00,40.00,17,9,22,0.00
2014-10-14,74,58,37,38,34,31,90,46,22,0.00,40.00,26,14,30,0.00
2014-10-15,72,62,45,39,33,25,68,36,18,0.00,40.00,33,16,40,0.00
2014-10-16,60,47,35,36,32,26,90,60,29,0.00,40.00,11,5,14,0.00
2014-10-17,71,50,32,40,35,31,98,64,30,0.00,40.00,9,4,12,0.00
2014-10-18,69,53,38,43,38,36,100,62,31,0.00,40.00,14,6,18,0.00
2014-10-19,74,52,33,41,37,33,100,62,23,0.00,40.00,12,6,14,0.00
2014-10-20,79,59,39,42,38,35,87,51,23,0.00,40.00,21,8,24,0.00
2014-10-21,63,52,39,47,40,35,91,65,41,0.00,40.00,34,17,42,0.02
2014-10-22,62,46,33,36,32,28,95,62,31,0.00,40.00,17,9,21,0.01
2014-10-23,65,55,45,39,32,27,71,44,29,0.00,40.00,19,11,23,0.00
2014-10-24,76,58,45,43,37,32,76,50,21,0.00,40.00,19,9,23,0.00
2014-10-25,77,60,38,47,35,31,78,44,20,0.00,40.00,29,10,34,0.00
2014-10-26,62,48,41,43,35,29,91,61,40,0.00,40.00,31,18,39,0.02
2014-10-27,48,40,34,34,30,24,91,68,40,0.00,40.00,21,12,25,0.01
2014-10-28,57,41,27,27,24,22,89,56,25,0.00,40.00,14,6,17,0.00
2014-10-29,65,55,38,40,33,24,62,44,30,0.00,40.00,17,9,21,0.00
2014-10-30,71,54,39,38,34,32,85,50,28,0.00,40.00,11,6,14,0.00
2014-10-31,72,56,39,34,31,26,79,43,19,0.00,40.00,24,9,32,0.00
2014-11-1,72,54,43,44,34,30,78,50,22,0.00,40.00,34,12,43,0.00
2014-11-2,43,38,35,38,36,34,100,94,74,0.00,40.00,19,15,23,0.70
2014-11-3,47,38,33,36,33,30,97,84,52,0.00,40.00,16,9,20,0.01
2014-11-4,52,44,35,35,32,30,87,66,43,0.00,40.00,15,11,18,0.00
2014-11-5,58,48,40,44,40,34,88,74,54,0.00,40.00,12,7,15,0.00
2014-11-6,63,46,30,42,36,30,100,71,37,0.00,40.00,23,10,28,0.00
2014-11-7,60,51,35,43,36,30,81,58,35,0.00,40.00,25,14,28,0.00
2014-11-8,58,41,27,39,32,25,91,69,44,0.00,40.00,13,6,15,0.00
2014-11-9,66,52,32,42,37,32,98,60,34,0.00,40.00,25,11,32,0.00
2014-11-10,51,39,30,44,31,22,92,76,43,0.00,40.00,27,13,33,0.02
2014-11-11,31,22,10,25,7,-8,90,56,33,0.00,40.00,26,16,30,0.01
2014-11-12,28,14,5,4,-1,-7,71,51,34,0.00,40.00,17,10,20,0.01
2014-11-13,22,17,7,21,13,3,100,86,60,0.00,40.00,11,5,12,0.33
2014-11-14,39,32,22,38,32,21,100,98,92,0.00,40.00,29,15,33,0.56
2014-11-15,32,18,2,30,10,-2,96,74,47,0.00,40.00,28,9,33,0.03
2014-11-16,23,16,2,16,13,-1,99,88,71,0.00,40.00,13,6,17,0.07
2014-11-17,23,9,1,14,6,-1,96,88,67,0.00,40.00,6,2,8,0.01
2014-11-18,29,14,1,19,10,-1,95,84,64,0.00,40.00,9,4,12,0.00
2014-11-19,36,24,15,24,19,14,97,82,60,0.00,40.00,9,3,11,0.00
2014-11-20,38,29,20,34,26,20,100,89,68,0.00,40.00,7,2,8,0.00
2014-11-21,40,30,19,31,26,19,100,87,69,0.00,40.00,20,5,24,0.00
2014-11-22,42,38,36,40,34,29,99,85,60,0.00,40.00,30,20,34,0.11
2014-11-23,39,35,30,34,30,28,94,83,68,0.00,40.00,26,20,31,0.03
2014-11-24,41,35,29,30,28,26,93,79,58,0.00,40.00,22,14,26,0.00
2014-11-25,50,43,35,43,36,25,90,77,56,0.00,40.00,32,24,38,0.00
2014-11-26,56,48,44,41,38,33,81,70,53,0.00,40.00,29,18,34,0.00
2014-11-27,60,51,46,36,32,29,61,50,34,0.00,40.00,24,17,29,0.00
2014-11-28,59,50,46,30,27,21,53,40,31,0.00,40.00,27,17,32,0.00
2014-11-29,53,46,38,42,31,20,100,59,30,0.00,40.00,26,14,30,0.20
2014-11-30,40,29,24,38,22,18,93,75,61,0.00,40.00,28,9,33,0.17
2014-12-1,43,33,27,38,30,24,100,90,83,0.00,40.00,24,7,30,0.04
2014-12-2,50,42,34,42,38,34,100,87,64,0.00,40.00,20,10,25,0.04
2014-12-3,47,40,33,42,38,33,100,92,83,0.00,40.00,18,11,21,0.06
2014-12-4,52,45,38,45,41,36,96,86,72,0.00,40.00,15,9,18,0.01
2014-12-5,53,42,36,45,40,35,100,92,74,0.00,40.00,11,3,13,0.01
2014-12-6,55,42,33,45,39,33,100,89,64,0.00,40.00,13,5,18,0.01
2014-12-7,53,44,34,43,41,34,100,87,69,0.00,40.00,11,4,13,0.01
2014-12-8,45,35,27,41,34,27,100,97,84,0.00,40.00,6,3,7,0.00
2014-12-9,47,37,26,40,35,26,100,93,74,0.00,40.00,9,3,11,0.00
2014-12-10,51,37,30,41,33,30,100,83,65,0.00,40.00,9,4,13,0.00
2014-12-11,57,50,33,37,33,29,93,50,39,0.00,40.00,29,17,36,0.00
2014-12-12,60,53,48,37,34,31,62,49,38,0.00,40.00,28,12,35,0.00
2014-12-13,50,36,33,41,35,33,100,95,55,0.00,40.00,20,15,26,0.32
2014-12-14,33,31,28,33,30,27,100,94,90,0.00,40.00,17,10,22,0.18
2014-12-15,38,29,22,29,25,20,97,85,62,0.00,40.00,13,8,16,0.01
2014-12-16,39,33,29,35,31,28,100,93,75,0.00,40.00,13,5,15,0.06
2014-12-17,40,32,26,36,31,25,100,96,84,0.00,40.00,10,4,12,0.02
2014-12-18,39,32,24,35,30,24,100,93,80,0.00,40.00,16,5,19,0.00
2014-12-19,42,37,35,36,33,32,99,85,72,0.00,40.00,21,15,28,0.06
2014-12-20,41,36,36,38,34,35,99,93,86,0.00,40.00,22,14,26,0.08
2014-12-21,48,43,38,46,41,37,99,93,85,0.00,40.00,32,20,41,0.07
2014-12-22,44,37,30,38,33,21,100,85,59,0.00,40.00,22,12,26,0.02
2014-12-23,39,30,21,29,25,19,100,80,61,0.00,40.00,17,8,21,0.02
2014-12-24,39,35,31,33,24,19,100,64,47,0.00,40.00,34,25,42,0.06
2014-12-25,33,30,26,33,26,18,100,87,62,0.00,40.00,26,16,32,0.74
2014-12-26,26,18,6,23,16,4,100,91,73,0.00,40.00,13,6,16,0.03
2014-12-27,29,25,19,24,21,17,99,84,70,0.00,40.00,23,10,30,0.00
2014-12-28,30,28,25,30,25,23,99,91,86,0.00,40.00,28,14,33,0.07
2014-12-29,27,20,10,26,17,4,100,89,76,0.00,40.00,21,12,25,0.06
2014-12-30,12,4,-5,4,-2,-9,84,73,61,0.00,40.00,22,13,26,0.01
2014-12-31,10,1,-7,4,-4,-11,87,82,69,0.00,40.00,9,2,10,0.00
2015-1-1,14,6,-1,9,3,-4,92,88,81,0.00,40.00,6,2,7,0.01
2015-1-2,17,8,-3,13,4,-6,90,82,68,0.00,40.00,5,3,6,0.01